Карточка аэропорта URSS

Внимание!
Информация на этой странице в стадии наполнения.
Если вы не увидели какой-то информации, или заметили неточность - пожалуйста сообщите нам!
Спасибо!
Команда RU-STAFF
Название аэропортаСочи
Название аэропорта (англ.)Sochi
Превышение89 ft. (27.1 m.)
Координаты43°26.634', 39°56.55'
Высота перехода1100m
Эшелон переходаFL050
Коды ответчика1060-1077
Зона ОрВДРостов-на-Дону РПИ (URRV)
Данные METARURSS 170300Z 03004MPS 9999 BKN030 14/13 Q1012 R02/010070 R06/010070 NOSIG RMK R06/09001MPS MT OBSC QFE758
Проноз погоды (TAF)URSS 170155Z 1703/1803 04006MPS 9999 SCT050CB SCT100 BECMG 1707/1708 28003G08MPS SCT040CB BKN100 TEMPO 1708/1714 VRB07G14MPS -TSRA FM171400 05003G08MPS 7000 SCT016 BKN040CB OVC100 TEMPO 1714/1803 VRB07G14MPS 1200 TSRA FEW008 BKN040CB OVC100
NOTAMshow/hide NOTAM
AWOS   TABLE

Информация о ВПП

ВПП Длина ВПП (м.) Покрытие Курс ВПП Частота ILS
242890Цементобетон238 
202500Цементобетон202 
022500Цементобетон22110.5
062890Цементобетон58111.1

Диспетчерские позиции

Позывной Наименование органа УВД Частота
URSS_GNDСочи-Руление119.000
URSS_TWRСочи-Старт121.200
URSS_APPСочи-Подход118.300
URSS_R_APPСочи-Круг119.700
URSS_DELСочи-Деливери132.700
URSS_FM1119.000



Спутниковое изображение